Time;durP1;ratioP1;P1;durP2;ratioP2;P2;SDS_P1;SDS_P2;PMS_P1;PMS_P2;Temp;Humidity;BMP_temperature;BMP_pressure;BME280_temperature;BME280_humidity;BME280_pressure;Samples;Min_cycle;Max_cycle;Signal;HPM_P1;HPM_P2
2023/05/12 00:01:02;;;;;;;9.57;6.53;;;;;;;11.57;100.00;100242.69;5067768;28;20222;-79
2023/05/12 00:03:28;;;;;;;10.27;6.60;;;;;;;11.55;100.00;100242.66;5062182;28;20681;-81
2023/05/12 00:05:55;;;;;;;10.07;6.57;;;;;;;11.52;100.00;100242.66;5066428;28;20284;-80
2023/05/12 00:08:21;;;;;;;10.20;6.47;;;;;;;11.55;100.00;100240.00;5065142;28;20775;-78
2023/05/12 00:10:48;;;;;;;10.00;6.40;;;;;;;11.55;100.00;100240.00;5068174;28;20225;-78
2023/05/12 00:13:14;;;;;;;9.07;6.50;;;;;;;11.54;100.00;100238.25;5061805;28;20723;-79
2023/05/12 00:15:40;;;;;;;8.77;6.30;;;;;;;11.56;100.00;100239.13;5064962;28;20553;-78
2023/05/12 00:18:07;;;;;;;9.03;6.17;;;;;;;11.58;100.00;100236.50;5061095;28;20407;-78
2023/05/12 00:20:33;;;;;;;9.40;6.37;;;;;;;11.59;100.00;100236.50;5068707;28;20299;-80
2023/05/12 00:23:00;;;;;;;9.70;6.50;;;;;;;11.63;100.00;100239.22;5062372;28;20233;-78
2023/05/12 00:25:26;;;;;;;8.17;6.27;;;;;;;11.63;100.00;100236.56;5059669;28;20559;-79
2023/05/12 00:27:52;;;;;;;10.53;6.33;;;;;;;11.58;100.00;100228.53;5060342;28;20262;-75
2023/05/12 00:30:19;;;;;;;11.37;6.90;;;;;;;11.57;100.00;100234.72;5065345;28;20283;-75
2023/05/12 00:32:46;;;;;;;10.63;6.87;;;;;;;11.59;100.00;100239.16;5066302;28;20194;-77
2023/05/12 00:35:13;;;;;;;9.47;6.50;;;;;;;11.64;100.00;100239.22;5065631;28;20197;-74
2023/05/12 00:37:39;;;;;;;10.87;6.47;;;;;;;11.57;100.00;100237.38;5048258;28;20292;-76
2023/05/12 00:40:06;;;;;;;9.40;6.37;;;;;;;11.55;100.00;100228.53;5065263;28;20205;-77
2023/05/12 00:42:34;;;;;;;9.10;6.13;;;;;;;11.54;100.00;100232.06;5061144;28;20238;-77
2023/05/12 00:45:01;;;;;;;10.13;6.80;;;;;;;11.54;100.00;100219.69;5068105;28;20226;-78
2023/05/12 00:47:27;;;;;;;11.83;7.50;;;;;;;11.53;100.00;100223.22;5063890;28;20228;-76
2023/05/12 00:49:54;;;;;;;12.17;7.67;;;;;;;11.58;100.00;100217.94;5063048;28;20681;-77
2023/05/12 00:52:20;;;;;;;11.23;7.40;;;;;;;11.56;100.00;100217.91;5069101;28;20248;-80
2023/05/12 00:54:47;;;;;;;9.43;6.07;;;;;;;11.55;100.00;100225.88;5064887;28;20220;-77
2023/05/12 00:57:14;;;;;;;9.63;6.30;;;;;;;11.56;100.00;100217.03;5059467;28;20200;-81
2023/05/12 00:59:40;;;;;;;10.03;6.47;;;;;;;11.63;100.00;100218.00;5065200;28;20193;-81
2023/05/12 01:02:07;;;;;;;11.57;7.20;;;;;;;11.64;100.00;100217.09;5062609;28;20272;-81
2023/05/12 01:04:34;;;;;;;11.10;6.90;;;;;;;11.60;100.00;100224.13;5062319;28;20636;-81
2023/05/12 01:07:24;;;;;;;9.47;6.37;;;;;;;11.66;100.00;100225.97;5064011;28;20202;-82
2023/05/12 01:09:57;;;;;;;9.47;6.37;;;;;;;11.63;100.00;100224.19;5059911;28;20248;-76
2023/05/12 01:12:24;;;;;;;9.77;6.47;;;;;;;11.61;100.00;100221.53;5064091;28;20213;-80
2023/05/12 01:14:52;;;;;;;9.80;6.10;;;;;;;11.62;100.00;100219.75;5059434;28;20206;-79
2023/05/12 01:17:28;;;;;;;12.10;7.20;;;;;;;11.62;100.00;100225.06;5047964;28;20210;-78
2023/05/12 01:20:00;;;;;;;11.03;7.10;;;;;;;11.61;100.00;100216.22;5062925;28;20191;-79
2023/05/12 01:22:32;;;;;;;10.27;5.83;;;;;;;11.61;100.00;100220.63;5064288;28;20210;-81
2023/05/12 01:25:02;;;;;;;11.93;6.20;;;;;;;11.58;100.00;100216.16;5063905;28;20205;-80
2023/05/12 01:27:29;;;;;;;12.00;6.70;;;;;;;11.58;100.00;100225.88;5057919;28;20633;-80
2023/05/12 01:30:01;;;;;;;8.67;6.17;;;;;;;11.53;100.00;100212.59;5061458;28;20708;-81
2023/05/12 01:32:29;;;;;;;9.93;6.67;;;;;;;11.54;100.00;100214.38;5064683;28;20218;-81
2023/05/12 01:34:55;;;;;;;8.77;6.00;;;;;;;11.53;100.00;100215.25;5061642;28;20208;-84
2023/05/12 01:37:25;;;;;;;9.30;5.73;;;;;;;11.52;100.00;100221.44;5066231;28;20281;-83
2023/05/12 01:39:52;;;;;;;8.07;5.70;;;;;;;11.52;100.00;100220.53;5068706;28;20205;-84
2023/05/12 01:42:19;;;;;;;10.37;6.57;;;;;;;11.52;100.00;100216.13;5069131;28;20222;-82
2023/05/12 01:44:45;;;;;;;9.30;6.27;;;;;;;11.55;100.00;100226.75;5068439;28;20740;-82
2023/05/12 01:47:14;;;;;;;10.27;6.03;;;;;;;11.52;100.00;100223.19;5069873;28;20214;-83
2023/05/12 01:49:40;;;;;;;9.77;5.90;;;;;;;11.50;100.00;100212.56;5045661;28;20241;-83
2023/05/12 01:52:07;;;;;;;8.37;5.80;;;;;;;11.47;100.00;100223.16;5068999;28;20225;-81
2023/05/12 01:54:33;;;;;;;9.30;6.13;;;;;;;11.51;100.00;100216.13;5054969;28;20205;-83
2023/05/12 01:57:00;;;;;;;9.03;6.10;;;;;;;11.50;100.00;100231.16;5059855;28;20201;-80
2023/05/12 01:59:26;;;;;;;8.83;6.03;;;;;;;11.45;100.00;100229.34;5062529;28;20198;-78
2023/05/12 02:01:52;;;;;;;9.13;6.30;;;;;;;11.45;100.00;100221.38;5067219;28;20522;-77
2023/05/12 02:04:19;;;;;;;9.33;6.37;;;;;;;11.42;100.00;100224.00;5054185;28;20210;-77
2023/05/12 02:06:45;;;;;;;8.77;6.27;;;;;;;11.44;100.00;100225.81;5065900;28;20657;-77
2023/05/12 02:09:12;;;;;;;9.93;6.50;;;;;;;11.42;100.00;100237.28;5065551;28;20295;-75
2023/05/12 02:11:38;;;;;;;8.40;5.53;;;;;;;11.40;100.00;100233.72;5070066;28;20274;-72
2023/05/12 02:14:05;;;;;;;9.90;6.00;;;;;;;11.38;100.00;100232.81;5068534;28;20243;-75
2023/05/12 02:16:31;;;;;;;8.63;6.17;;;;;;;11.36;100.00;100229.28;5057622;28;20201;-73
2023/05/12 02:18:58;;;;;;;8.77;5.63;;;;;;;11.35;100.00;100230.16;5076260;28;20236;-73
2023/05/12 02:21:25;;;;;;;7.50;5.27;;;;;;;11.33;100.00;100235.44;5065393;28;20272;-73
2023/05/12 02:23:51;;;;;;;8.13;5.43;;;;;;;11.32;100.00;100232.78;5056960;28;20202;-72
2023/05/12 02:26:18;;;;;;;7.33;5.20;;;;;;;11.33;100.00;100238.09;5078323;28;20201;-73
2023/05/12 02:28:44;;;;;;;8.90;5.77;;;;;;;11.34;100.00;100236.34;5077002;28;20252;-73
2023/05/12 02:31:11;;;;;;;8.47;5.73;;;;;;;11.34;100.00;100231.91;5078413;28;20378;-73
2023/05/12 02:33:37;;;;;;;8.87;5.90;;;;;;;11.34;100.00;100241.63;5071685;28;20225;-73
2023/05/12 02:36:04;;;;;;;8.73;5.73;;;;;;;11.33;100.00;100235.44;5073760;28;20222;-73
2023/05/12 02:38:30;;;;;;;7.80;5.37;;;;;;;11.33;100.00;100234.56;5067547;28;20292;-73
2023/05/12 02:40:57;;;;;;;9.07;5.37;;;;;;;11.35;100.00;100232.81;5069001;28;20245;-73
2023/05/12 02:43:23;;;;;;;7.80;5.07;;;;;;;11.34;100.00;100237.22;5075482;28;20685;-73
2023/05/12 02:45:50;;;;;;;9.10;6.40;;;;;;;11.35;100.00;100225.75;5075102;28;20229;-73
2023/05/12 02:48:17;;;;;;;11.57;6.83;;;;;;;11.44;100.00;100233.75;5067427;28;20201;-73
2023/05/12 02:50:43;;;;;;;12.13;7.33;;;;;;;11.50;100.00;100239.09;5071066;28;20667;-73
2023/05/12 02:53:09;;;;;;;10.57;6.83;;;;;;;11.53;100.00;100238.22;5075030;28;20237;-73
2023/05/12 02:55:36;;;;;;;13.07;7.67;;;;;;;11.58;100.00;100234.72;5073407;28;20225;-74
2023/05/12 02:58:02;;;;;;;12.37;7.90;;;;;;;11.76;100.00;100238.41;5067708;28;20209;-73
2023/05/12 03:00:28;;;;;;;13.03;8.47;;;;;;;11.76;100.00;100244.59;5076896;28;20694;-73
2023/05/12 03:02:55;;;;;;;14.93;8.57;;;;;;;11.81;100.00;100240.22;5064199;28;20229;-73
2023/05/12 03:05:21;;;;;;;15.00;8.53;;;;;;;11.77;100.00;100242.81;5066460;28;20198;-73
2023/05/12 03:07:50;;;;;;;15.03;9.23;;;;;;;11.76;100.00;100249.00;5071492;28;20677;-80
2023/05/12 03:10:17;;;;;;;13.77;8.50;;;;;;;11.74;100.00;100243.69;5074492;28;20222;-82
2023/05/12 03:12:44;;;;;;;13.20;8.33;;;;;;;11.73;100.00;100249.88;5069738;28;20205;-82
2023/05/12 03:15:11;;;;;;;14.77;8.90;;;;;;;11.74;100.00;100243.69;5069546;28;20202;-79
2023/05/12 03:17:37;;;;;;;13.93;9.03;;;;;;;11.76;100.00;100246.34;5070533;28;20197;-78
2023/05/12 03:20:04;;;;;;;15.70;9.20;;;;;;;11.80;100.00;100253.50;5068601;28;20729;-74
2023/05/12 03:22:31;;;;;;;19.17;10.17;;;;;;;11.83;100.00;100257.03;5065564;28;20233;-76
2023/05/12 03:24:57;;;;;;;18.00;10.00;;;;;;;11.83;100.00;100254.38;5070068;28;20616;-73
2023/05/12 03:27:24;;;;;;;16.43;9.80;;;;;;;11.82;100.00;100243.78;5071557;28;20670;-73
2023/05/12 03:29:50;;;;;;;15.00;9.50;;;;;;;11.77;100.00;100249.03;5049143;28;20697;-73
2023/05/12 03:32:17;;;;;;;16.70;9.47;;;;;;;11.76;100.00;100247.25;5064750;28;20253;-73
2023/05/12 03:34:43;;;;;;;16.50;9.20;;;;;;;11.77;100.00;100248.13;5069290;28;20209;-74
2023/05/12 03:37:10;;;;;;;19.80;10.40;;;;;;;11.77;100.00;100251.66;5071057;28;20194;-74
2023/05/12 03:39:36;;;;;;;20.90;10.80;;;;;;;11.84;100.00;100253.50;5067974;28;20227;-74
2023/05/12 03:42:02;;;;;;;20.10;11.50;;;;;;;11.84;100.00;100253.50;5068350;28;20232;-74
2023/05/12 03:44:29;;;;;;;22.57;11.73;;;;;;;11.81;100.00;100253.50;5069800;28;20262;-73
2023/05/12 03:46:55;;;;;;;21.50;11.30;;;;;;;11.80;100.00;100256.13;5053482;28;20670;-73
2023/05/12 03:49:22;;;;;;;24.63;12.67;;;;;;;11.87;100.00;100253.53;5065759;28;20225;-74
2023/05/12 03:51:48;;;;;;;25.70;12.63;;;;;;;11.82;100.00;100251.72;5067709;28;20218;-74
2023/05/12 03:54:14;;;;;;;31.40;14.00;;;;;;;11.84;100.00;100257.94;5070513;28;20226;-73
2023/05/12 03:56:41;;;;;;;27.43;13.90;;;;;;;11.85;100.00;100251.75;5050765;28;20202;-74
2023/05/12 03:59:07;;;;;;;26.93;13.37;;;;;;;11.87;100.00;100260.59;5073987;28;20243;-74
2023/05/12 04:01:34;;;;;;;24.20;12.30;;;;;;;11.87;100.00;100253.53;5070054;28;20218;-74
2023/05/12 04:04:00;;;;;;;25.70;12.40;;;;;;;11.86;100.00;100250.88;5069967;28;20662;-74
2023/05/12 04:06:27;;;;;;;30.73;14.10;;;;;;;11.85;100.00;100262.34;5064678;28;20236;-74
2023/05/12 04:08:53;;;;;;;26.00;12.97;;;;;;;11.82;100.00;100252.63;5067338;28;20191;-74
2023/05/12 04:11:20;;;;;;;27.00;12.37;;;;;;;11.86;100.00;100258.81;5061886;28;20246;-74
2023/05/12 04:13:46;;;;;;;23.50;12.57;;;;;;;11.90;100.00;100260.63;5066284;28;20782;-74
2023/05/12 04:16:13;;;;;;;22.57;12.23;;;;;;;11.93;100.00;100255.31;5066556;28;20201;-74
2023/05/12 04:18:39;;;;;;;20.70;11.43;;;;;;;11.92;100.00;100267.72;5068799;28;20208;-73
2023/05/12 04:21:05;;;;;;;21.53;11.27;;;;;;;11.92;100.00;100262.41;5064653;28;20272;-74
2023/05/12 04:23:32;;;;;;;21.37;11.23;;;;;;;11.97;100.00;100267.72;5068964;28;20205;-73
2023/05/12 04:25:58;;;;;;;19.20;10.90;;;;;;;12.02;100.00;100263.38;5070933;28;20194;-73
2023/05/12 04:28:25;;;;;;;12.13;6.27;;;;;;;11.99;100.00;100268.63;5057088;28;20769;-74
2023/05/12 04:30:51;;;;;;;9.23;5.10;;;;;;;11.87;100.00;100274.75;5062322;28;20667;-73
2023/05/12 04:33:17;;;;;;;8.97;4.77;;;;;;;11.84;100.00;100272.09;5058395;28;20225;-74
2023/05/12 04:35:44;;;;;;;8.53;4.70;;;;;;;11.77;100.00;100274.66;5065278;28;20206;-73
2023/05/12 04:38:11;;;;;;;9.03;4.43;;;;;;;11.70;100.00;100272.84;5067609;28;20198;-75
2023/05/12 04:40:37;;;;;;;6.60;4.37;;;;;;;11.67;100.00;100281.69;5063361;28;20238;-76
2023/05/12 04:43:03;;;;;;;6.83;4.67;;;;;;;11.69;100.00;100281.69;5071027;28;20229;-74
2023/05/12 04:45:30;;;;;;;7.40;4.73;;;;;;;11.64;100.00;100288.72;5063634;28;20260;-73
2023/05/12 04:47:56;;;;;;;8.60;4.50;;;;;;;11.63;100.00;100284.31;5070780;28;20229;-73
2023/05/12 04:50:22;;;;;;;7.60;4.77;;;;;;;11.70;100.00;100280.81;5065894;28;20216;-73
2023/05/12 04:52:49;;;;;;;9.33;5.80;;;;;;;11.74;100.00;100291.44;5066296;28;20229;-73
2023/05/12 04:55:15;;;;;;;10.63;5.37;;;;;;;11.76;100.00;100295.00;5059058;28;20621;-74
2023/05/12 04:57:42;;;;;;;9.70;5.70;;;;;;;11.86;100.00;100298.63;5069945;28;20204;-74
2023/05/12 05:00:09;;;;;;;8.57;5.73;;;;;;;11.88;100.00;100297.75;5067360;28;20225;-73
2023/05/12 05:02:35;;;;;;;8.97;5.70;;;;;;;11.91;100.00;100295.13;5067459;28;20241;-73
2023/05/12 05:05:02;;;;;;;10.50;5.90;;;;;;;12.01;100.00;100300.47;5066603;28;20197;-74
2023/05/12 05:07:28;;;;;;;9.50;6.27;;;;;;;12.01;100.00;100295.16;5067217;28;20205;-73
2023/05/12 05:09:55;;;;;;;9.57;6.47;;;;;;;12.03;100.00;100310.25;5067580;28;20723;-73
2023/05/12 05:12:21;;;;;;;10.63;7.20;;;;;;;12.03;100.00;100296.09;5064890;28;20221;-74
2023/05/12 05:14:48;;;;;;;9.90;6.60;;;;;;;12.06;100.00;100304.97;5049877;28;20199;-73
2023/05/12 05:17:14;;;;;;;14.70;7.30;;;;;;;12.12;100.00;100309.41;5054926;28;20196;-74
2023/05/12 05:19:41;;;;;;;12.33;7.47;;;;;;;12.19;100.00;100313.88;5065596;28;20196;-72
2023/05/12 05:22:24;;;;;;;10.90;7.27;;;;;;;12.21;100.00;100307.69;5065860;28;20242;-72
2023/05/12 05:24:50;;;;;;;9.30;6.93;;;;;;;12.31;100.00;100316.59;5062413;28;20231;-72
2023/05/12 05:27:17;;;;;;;13.67;6.80;;;;;;;12.40;100.00;100313.97;5056502;28;20212;-73
2023/05/12 05:29:43;;;;;;;10.63;7.27;;;;;;;12.62;100.00;100317.63;5066170;28;20310;-74
2023/05/12 05:32:09;;;;;;;11.87;7.33;;;;;;;12.88;100.00;100312.41;5065583;28;20218;-77
2023/05/12 05:34:36;;;;;;;15.00;7.60;;;;;;;13.02;100.00;100315.09;5062742;28;20274;-79
2023/05/12 05:37:03;;;;;;;10.97;6.87;;;;;;;13.16;100.00;100316.88;5053198;28;20293;-80
2023/05/12 05:39:29;;;;;;;9.97;6.87;;;;;;;13.32;100.00;100320.50;5055735;28;20205;-79
2023/05/12 05:41:56;;;;;;;8.77;6.70;;;;;;;13.47;100.00;100323.16;5067003;28;20615;-79
2023/05/12 05:44:23;;;;;;;11.07;6.73;;;;;;;13.62;100.00;100324.06;5065353;28;20202;-81
2023/05/12 05:46:50;;;;;;;8.60;6.43;;;;;;;13.70;100.00;100325.84;5045363;28;20201;-78
2023/05/12 05:49:16;;;;;;;10.33;6.60;;;;;;;13.82;100.00;100329.38;5064975;28;20190;-81
2023/05/12 05:51:43;;;;;;;9.30;6.90;;;;;;;13.93;100.00;100332.91;5066941;28;20218;-80
2023/05/12 05:54:09;;;;;;;8.03;6.00;;;;;;;13.83;100.00;100334.69;5062776;28;20248;-80
2023/05/12 05:56:36;;;;;;;9.53;6.47;;;;;;;13.86;100.00;100340.00;5063800;28;20205;-81
2023/05/12 05:59:03;;;;;;;7.23;5.93;;;;;;;13.72;100.00;100341.81;5055890;28;20210;-79
2023/05/12 06:01:30;;;;;;;9.23;5.97;;;;;;;13.59;100.00;100345.34;5043525;28;20227;-81
2023/05/12 06:03:56;;;;;;;8.17;5.53;;;;;;;13.47;100.00;100343.56;5067903;28;20251;-79
2023/05/12 06:06:23;;;;;;;9.93;6.07;;;;;;;13.48;100.00;100350.66;5064840;28;20198;-78
2023/05/12 06:08:49;;;;;;;8.27;5.60;;;;;;;13.40;100.00;100360.41;5063506;28;20206;-78
2023/05/12 06:11:16;;;;;;;8.97;6.27;;;;;;;13.41;100.00;100355.09;5066492;28;20221;-79
2023/05/12 06:13:43;;;;;;;8.93;6.40;;;;;;;13.39;100.00;100356.84;5066708;28;20195;-75
2023/05/12 06:16:09;;;;;;;8.67;6.10;;;;;;;13.50;100.00;100364.84;5067478;28;20206;-75
2023/05/12 06:18:36;;;;;;;7.93;6.00;;;;;;;13.45;100.00;100364.84;5062241;28;20206;-75
2023/05/12 06:21:05;;;;;;;7.00;5.70;;;;;;;13.48;100.00;100363.97;5064933;28;20222;-75
2023/05/12 06:23:31;;;;;;;8.03;5.83;;;;;;;13.51;100.00;100363.06;5062606;28;20206;-74
2023/05/12 06:25:57;;;;;;;7.60;6.10;;;;;;;13.52;100.00;100375.50;5067492;28;20190;-74
2023/05/12 06:28:24;;;;;;;9.13;5.97;;;;;;;13.49;100.00;100377.25;5067935;28;20214;-74
2023/05/12 06:30:50;;;;;;;8.63;6.23;;;;;;;13.53;100.00;100375.50;5065771;28;20218;-74
2023/05/12 06:33:17;;;;;;;8.40;6.10;;;;;;;13.64;100.00;100379.06;5046813;28;20202;-76
2023/05/12 06:35:43;;;;;;;6.37;5.70;;;;;;;13.64;100.00;100368.44;5063251;28;20662;-76
2023/05/12 06:38:10;;;;;;;6.23;5.43;;;;;;;13.69;100.00;100382.63;5066087;28;20194;-79
2023/05/12 06:40:37;;;;;;;8.27;6.07;;;;;;;13.56;100.00;100377.25;5068900;28;20268;-81
2023/05/12 06:43:03;;;;;;;7.07;5.97;;;;;;;13.62;100.00;100378.19;5047189;28;20198;-82
2023/05/12 06:45:30;;;;;;;7.33;5.67;;;;;;;13.64;100.00;100388.84;5062147;28;20205;-79
2023/05/12 06:47:56;;;;;;;7.27;6.40;;;;;;;13.56;100.00;100387.91;5068854;28;20247;-78
2023/05/12 06:50:23;;;;;;;6.77;5.67;;;;;;;13.56;100.00;100385.25;5066765;28;20720;-79
2023/05/12 06:52:49;;;;;;;6.73;5.20;;;;;;;13.61;100.00;100387.06;5052822;28;20496;-78
2023/05/12 06:55:18;;;;;;;6.57;5.67;;;;;;;13.59;100.00;100388.78;5066038;28;20236;-76
2023/05/12 06:57:45;;;;;;;8.63;6.43;;;;;;;13.61;100.00;100391.47;5063645;28;20728;-75
2023/05/12 07:00:12;;;;;;;7.70;5.73;;;;;;;13.57;100.00;100393.22;5067792;28;20190;-76
2023/05/12 07:02:39;;;;;;;9.63;6.20;;;;;;;13.64;100.00;100403.03;5068616;28;20223;-77
2023/05/12 07:05:05;;;;;;;7.43;6.00;;;;;;;13.64;100.00;100403.03;5071172;28;20725;-75
2023/05/12 07:07:32;;;;;;;10.37;5.50;;;;;;;13.82;100.00;100398.59;5066324;28;20195;-77
2023/05/12 07:10:01;;;;;;;6.50;5.17;;;;;;;13.97;100.00;100403.91;5066250;28;20348;-80
2023/05/12 07:12:27;;;;;;;8.40;5.10;;;;;;;13.96;100.00;100396.81;5069436;28;20218;-80
2023/05/12 07:14:53;;;;;;;8.07;4.83;;;;;;;14.05;100.00;100408.38;5072510;28;20225;-81
2023/05/12 07:17:22;;;;;;;6.83;5.07;;;;;;;14.01;100.00;100395.94;5063248;28;20860;-80
2023/05/12 07:19:48;;;;;;;5.40;4.90;;;;;;;14.35;100.00;100401.19;5072224;28;20222;-82
2023/05/12 07:22:15;;;;;;;7.03;4.87;;;;;;;14.56;100.00;100395.88;5071755;28;20256;-80
2023/05/12 07:24:42;;;;;;;6.23;4.80;;;;;;;14.87;100.00;100403.78;5068130;28;20209;-79
2023/05/12 07:27:08;;;;;;;7.70;4.63;;;;;;;15.15;100.00;100399.19;5063961;28;20630;-82
2023/05/12 07:29:34;;;;;;;6.57;4.73;;;;;;;15.71;97.89;100401.56;5071267;28;20198;-76
2023/05/12 07:32:01;;;;;;;5.97;4.87;;;;;;;15.86;95.20;100406.78;5067148;28;20308;-74
2023/05/12 07:34:27;;;;;;;4.80;4.30;;;;;;;16.03;92.02;100398.63;5066501;28;20191;-73
2023/05/12 07:36:54;;;;;;;5.57;4.60;;;;;;;16.26;92.96;100401.97;5069761;28;20233;-72
2023/05/12 07:39:22;;;;;;;5.67;4.67;;;;;;;16.25;90.22;100404.66;5068627;28;20572;-73
2023/05/12 07:41:49;;;;;;;5.63;4.30;;;;;;;16.34;90.01;100404.56;5058445;28;20253;-75
2023/05/12 07:44:16;;;;;;;7.57;4.30;;;;;;;16.42;89.66;100408.06;5070923;28;20298;-71
2023/05/12 07:46:42;;;;;;;5.93;4.20;;;;;;;16.52;89.62;100398.16;5069912;28;20221;-71
2023/05/12 07:49:09;;;;;;;6.30;4.03;;;;;;;16.51;88.63;100389.25;5067952;28;20191;-73
2023/05/12 07:51:35;;;;;;;6.30;4.20;;;;;;;16.26;88.24;100398.41;5068221;28;20218;-71
2023/05/12 07:54:02;;;;;;;4.90;4.10;;;;;;;16.01;89.82;100394.19;5064696;28;20190;-72
2023/05/12 07:56:28;;;;;;;6.90;4.60;;;;;;;15.97;92.78;100404.00;5065309;28;20200;-72
2023/05/12 07:58:55;;;;;;;6.97;4.67;;;;;;;15.88;91.07;100404.97;5066766;28;20247;-71
2023/05/12 08:01:21;;;;;;;8.20;4.97;;;;;;;15.87;91.67;100402.31;5066291;28;20226;-72
2023/05/12 08:03:49;;;;;;;7.07;5.30;;;;;;;15.70;90.55;100409.59;5067622;28;20236;-73
2023/05/12 08:06:17;;;;;;;6.43;4.60;;;;;;;15.53;91.16;100417.66;5067297;28;20708;-72
2023/05/12 08:08:43;;;;;;;8.50;4.33;;;;;;;15.44;92.37;100413.25;5069410;28;20229;-74
2023/05/12 08:11:11;;;;;;;7.53;4.80;;;;;;;15.46;94.12;100410.59;5075670;28;20226;-73
2023/05/12 08:13:37;;;;;;;7.33;4.77;;;;;;;15.41;92.88;100410.63;5070763;28;20581;-73
2023/05/12 08:16:04;;;;;;;10.97;4.50;;;;;;;15.44;93.94;100415.94;5065744;28;20206;-73
2023/05/12 08:18:30;;;;;;;6.53;4.27;;;;;;;15.42;92.60;100423.06;5066429;28;20696;-73
2023/05/12 08:20:57;;;;;;;5.83;4.07;;;;;;;15.43;93.09;100421.28;5072742;28;20256;-72
2023/05/12 08:23:23;;;;;;;5.93;4.17;;;;;;;15.42;93.51;100425.72;5070748;28;20194;-73
2023/05/12 08:25:49;;;;;;;5.80;4.33;;;;;;;15.46;93.19;100424.81;5068377;28;20228;-72
2023/05/12 08:28:16;;;;;;;6.33;4.43;;;;;;;15.58;94.15;100422.09;5066095;28;20256;-72
2023/05/12 08:30:43;;;;;;;5.87;4.20;;;;;;;15.64;92.88;100421.19;5046352;28;20250;-73
2023/05/12 08:33:11;;;;;;;7.33;4.50;;;;;;;15.53;93.00;100423.88;5069404;28;20701;-71
2023/05/12 08:35:37;;;;;;;5.47;4.00;;;;;;;15.45;92.43;100422.16;5066478;28;20675;-72
2023/05/12 08:38:04;;;;;;;5.20;4.30;;;;;;;15.42;92.53;100425.72;5068257;28;20198;-72
2023/05/12 08:40:40;;;;;;;4.50;3.93;;;;;;;15.31;93.11;100424.91;5062097;28;20251;-73
2023/05/12 08:43:36;;;;;;;4.80;3.80;;;;;;;15.36;93.25;100431.09;5068272;28;20194;-73
2023/05/12 08:46:04;;;;;;;5.93;4.37;;;;;;;15.39;93.52;100422.19;5069658;28;20190;-73
2023/05/12 08:48:33;;;;;;;4.20;3.80;;;;;;;15.35;92.89;100430.22;5069368;28;20208;-76
2023/05/12 08:51:01;;;;;;;4.67;4.10;;;;;;;15.45;93.11;100432.84;5047366;28;20224;-73
2023/05/12 08:53:28;;;;;;;4.27;3.87;;;;;;;15.79;93.16;100436.22;5066346;28;20578;-73
2023/05/12 08:55:55;;;;;;;5.73;4.20;;;;;;;16.03;89.39;100422.69;5069892;28;20492;-73
2023/05/12 08:58:44;;;;;;;5.37;4.00;;;;;;;16.42;88.18;100431.25;5066851;28;20763;-73
2023/05/12 09:01:11;;;;;;;5.30;3.90;;;;;;;16.90;86.45;100424.50;5069903;28;20214;-73
2023/05/12 09:03:37;;;;;;;4.27;3.73;;;;;;;17.43;85.42;100425.59;5066145;28;20591;-73
2023/05/12 09:06:05;;;;;;;5.33;3.60;;;;;;;17.54;80.47;100418.28;5066224;28;20200;-74
2023/05/12 09:08:33;;;;;;;6.13;4.07;;;;;;;17.80;78.34;100420.63;5063411;28;20566;-73
2023/05/12 09:11:00;;;;;;;6.47;3.57;;;;;;;17.95;78.28;100409.66;5068489;28;20659;-72
2023/05/12 09:13:47;;;;;;;4.83;3.33;;;;;;;18.03;78.80;100415.78;5061927;28;20216;-74
2023/05/12 09:16:17;;;;;;;5.40;3.60;;;;;;;18.30;75.46;100418.88;5065038;28;20209;-73
2023/05/12 09:18:49;;;;;;;4.30;3.63;;;;;;;18.47;74.86;100414.13;5069086;28;20204;-72
2023/05/12 09:21:16;;;;;;;5.53;3.43;;;;;;;18.69;73.59;100414.63;5051248;28;20224;-73
2023/05/12 09:24:05;;;;;;;5.33;3.60;;;;;;;19.20;72.32;100415.34;5068262;28;20292;-74
2023/05/12 09:26:48;;;;;;;5.53;3.70;;;;;;;19.66;72.06;100409.91;5065787;28;20226;-73
2023/05/12 09:29:16;;;;;;;5.15;3.53;;;;;;;19.24;69.30;100416.19;5065482;28;20226;-72
2023/05/12 09:31:57;;;;;;;5.90;3.73;;;;;;;19.62;68.31;100408.19;5064097;28;20246;-73
2023/05/12 09:34:29;;;;;;;4.13;3.60;;;;;;;19.89;69.96;100406.63;5065609;28;20277;-72
2023/05/12 09:37:00;;;;;;;5.90;3.60;;;;;;;19.76;66.11;100409.66;5062878;28;20271;-73
2023/05/12 09:39:27;;;;;;;7.78;3.88;;;;;;;19.91;67.72;100409.28;5068263;28;20198;-73
2023/05/12 09:41:54;;;;;;;5.63;3.47;;;;;;;20.07;66.10;100416.06;5063392;28;20217;-73
2023/05/12 09:44:22;;;;;;;5.45;3.60;;;;;;;19.78;65.64;100403.34;5062169;28;20268;-73
2023/05/12 09:46:50;;;;;;;4.38;3.72;;;;;;;20.06;64.08;100405.34;5070482;28;20225;-72
2023/05/12 09:49:27;;;;;;;4.60;3.45;;;;;;;20.39;64.67;100417.03;5051311;28;20277;-73
2023/05/12 09:51:57;;;;;;;6.40;4.10;;;;;;;20.41;62.90;100416.09;5067242;28;20217;-73
2023/05/12 09:54:28;;;;;;;6.55;3.60;;;;;;;20.34;63.20;100409.97;5068120;28;20194;-73
2023/05/12 09:57:03;;;;;;;7.57;3.80;;;;;;;20.12;63.61;100414.16;5066263;28;20209;-73
2023/05/12 09:59:32;;;;;;;10.68;3.95;;;;;;;19.57;64.97;100412.78;5067154;28;20198;-72
2023/05/12 10:02:00;;;;;;;4.70;3.72;;;;;;;19.32;66.64;100417.78;5053063;28;20214;-70
2023/05/12 10:04:38;;;;;;;3.90;3.50;;;;;;;18.53;69.41;100407.75;5066821;28;20198;-70
2023/05/12 10:07:08;;;;;;;5.60;3.83;;;;;;;18.36;70.39;100414.28;5061756;28;20247;-71
2023/05/12 10:09:38;;;;;;;4.67;3.63;;;;;;;18.14;71.96;100410.25;5061392;28;20236;-72
2023/05/12 10:12:05;;;;;;;8.77;4.10;;;;;;;17.73;73.12;100411.81;5060112;28;20697;-71
2023/05/12 10:14:32;;;;;;;7.53;3.90;;;;;;;17.73;73.26;100411.81;5047306;28;20202;-73
2023/05/12 10:16:59;;;;;;;6.77;4.00;;;;;;;17.62;74.31;100411.06;5064543;28;20208;-70
2023/05/12 10:19:28;;;;;;;8.17;4.20;;;;;;;17.76;72.69;100409.06;5063423;28;20715;-71
2023/05/12 10:21:59;;;;;;;6.07;3.70;;;;;;;17.91;73.72;100405.25;5063095;28;20566;-70
2023/05/12 10:24:26;;;;;;;5.87;4.17;;;;;;;17.88;70.57;100410.66;5068700;28;20271;-70
2023/05/12 10:26:56;;;;;;;5.30;3.77;;;;;;;17.72;73.15;100409.16;5048159;28;20200;-70
2023/05/12 10:29:28;;;;;;;7.00;4.03;;;;;;;17.65;74.77;100411.00;5070140;28;20244;-70
2023/05/12 10:31:56;;;;;;;9.47;4.20;;;;;;;17.52;74.87;100412.06;5060332;28;20222;-70
2023/05/12 10:34:29;;;;;;;5.83;3.80;;;;;;;17.33;75.09;100408.78;5072277;28;20279;-71
2023/05/12 10:36:57;;;;;;;7.50;4.20;;;;;;;17.30;76.40;100400.81;5069271;28;20202;-71
2023/05/12 10:39:28;;;;;;;8.37;4.20;;;;;;;17.32;75.62;100400.78;5069968;28;20244;-71
2023/05/12 10:42:04;;;;;;;6.03;3.97;;;;;;;17.30;76.02;100403.47;5091537;23;20272;-72
2023/05/12 10:44:31;;;;;;;7.07;4.33;;;;;;;17.07;75.81;100395.75;5052330;28;20742;-73
2023/05/12 10:47:00;;;;;;;11.07;5.00;;;;;;;17.06;77.26;100401.13;5069437;28;20642;-72
2023/05/12 10:49:38;;;;;;;6.70;4.10;;;;;;;17.06;77.66;100407.34;5067954;28;20201;-73
2023/05/12 10:52:04;;;;;;;11.50;4.90;;;;;;;16.85;79.38;100411.19;5065089;28;20863;-73
2023/05/12 10:54:39;;;;;;;10.40;4.60;;;;;;;16.68;80.64;100410.47;5067848;28;20202;-73
2023/05/12 10:57:12;;;;;;;6.97;4.97;;;;;;;16.48;82.22;100408.00;5063773;28;20208;-71
2023/05/12 10:59:50;;;;;;;7.57;4.40;;;;;;;16.33;82.34;100412.59;5062752;28;20202;-73
2023/05/12 11:02:24;;;;;;;5.43;4.30;;;;;;;16.16;86.60;100402.97;5061754;28;20220;-73
2023/05/12 11:05:00;;;;;;;4.83;4.10;;;;;;;16.02;88.90;100415.56;5063482;28;20892;-72
2023/05/12 11:07:29;;;;;;;7.10;5.00;;;;;;;15.91;90.00;100410.28;5047341;28;20198;-72
2023/05/12 11:10:00;;;;;;;5.80;4.50;;;;;;;15.81;91.38;100419.28;5062295;28;20573;-71
2023/05/12 11:12:34;;;;;;;8.70;4.50;;;;;;;15.74;92.18;100422.91;5058833;28;20305;-74
2023/05/12 11:15:02;;;;;;;7.43;5.73;;;;;;;15.76;93.31;100418.44;5060897;28;20194;-73
2023/05/12 11:17:28;;;;;;;9.87;5.30;;;;;;;15.90;91.94;100413.88;5065579;28;20229;-72
2023/05/12 11:19:55;;;;;;;10.17;5.63;;;;;;;16.26;92.77;100417.13;5066861;28;20213;-73